Time;durP1;ratioP1;P1;durP2;ratioP2;P2;SDS_P1;SDS_P2;PMS_P1;PMS_P2;Temp;Humidity;BMP_temperature;BMP_pressure;BME280_temperature;BME280_humidity;BME280_pressure;Samples;Min_cycle;Max_cycle;Signal;HPM_P1;HPM_P2
2022/03/19 00:00:55;;;;;;;29.52;19.55;;;5.20;76.50;;;;;;5019447;28;20054;-80
2022/03/19 00:03:21;;;;;;;30.25;19.45;;;5.20;76.60;;;;;;5018275;28;20053;-80
2022/03/19 00:05:47;;;;;;;31.85;18.58;;;5.20;76.70;;;;;;5018449;28;20026;-79
2022/03/19 00:08:16;;;;;;;31.52;19.20;;;5.20;76.80;;;;;;5020941;28;20060;-79
2022/03/19 00:10:43;;;;;;;34.28;19.88;;;5.20;77.20;;;;;;5019131;28;20038;-79
2022/03/19 00:13:10;;;;;;;32.58;19.38;;;5.20;77.40;;;;;;5020638;28;20050;-78
2022/03/19 00:15:37;;;;;;;32.90;21.27;;;5.20;77.60;;;;;;5016220;28;20018;-77
2022/03/19 00:18:03;;;;;;;35.95;20.58;;;5.10;77.90;;;;;;4999047;28;20094;-79
2022/03/19 00:20:30;;;;;;;35.22;21.73;;;5.10;78.30;;;;;;5008786;28;20018;-79
2022/03/19 00:22:56;;;;;;;31.95;20.88;;;5.00;78.50;;;;;;5018102;28;20479;-78
2022/03/19 00:25:21;;;;;;;37.20;21.45;;;5.00;78.90;;;;;;5013381;28;20052;-79
2022/03/19 00:27:47;;;;;;;35.03;20.38;;;4.90;79.20;;;;;;5033811;28;20036;-80
2022/03/19 00:30:13;;;;;;;34.17;21.15;;;4.90;79.60;;;;;;5029347;28;20033;-79
2022/03/19 00:32:39;;;;;;;41.28;22.75;;;4.80;79.90;;;;;;5017760;28;20033;-80
2022/03/19 00:35:07;;;;;;;37.97;21.27;;;4.80;80.10;;;;;;5018749;28;20030;-79
2022/03/19 00:37:46;;;;;;;36.15;21.45;;;4.80;80.50;;;;;;5019428;28;20546;-77
2022/03/19 00:40:14;;;;;;;36.88;22.20;;;4.80;80.80;;;;;;5019476;28;20022;-79
2022/03/19 00:42:40;;;;;;;40.83;23.10;;;4.80;81.00;;;;;;5016360;28;20032;-78
2022/03/19 00:45:07;;;;;;;41.38;24.23;;;4.70;81.30;;;;;;5020030;28;20022;-77
2022/03/19 00:47:32;;;;;;;38.65;23.75;;;4.70;81.60;;;;;;5017711;28;20029;-80
2022/03/19 00:49:58;;;;;;;35.55;22.88;;;4.60;82.00;;;;;;5017900;28;20028;-78
2022/03/19 00:52:24;;;;;;;41.08;24.73;;;4.60;82.30;;;;;;5017101;28;20112;-79
2022/03/19 00:54:49;;;;;;;39.90;23.48;;;4.50;82.60;;;;;;5017404;28;20033;-79
2022/03/19 00:57:15;;;;;;;37.50;22.55;;;4.50;82.80;;;;;;5017202;28;20026;-79
2022/03/19 00:59:41;;;;;;;43.90;26.65;;;4.50;83.10;;;;;;5020528;28;20026;-80
2022/03/19 01:02:07;;;;;;;40.30;25.60;;;4.50;83.50;;;;;;5006574;28;20022;-79
2022/03/19 01:04:33;;;;;;;45.05;25.25;;;4.50;83.60;;;;;;5002106;28;20052;-80
2022/03/19 01:06:59;;;;;;;47.97;26.98;;;4.50;83.60;;;;;;5019182;28;20033;-80
2022/03/19 01:09:24;;;;;;;41.10;25.15;;;4.60;84.10;;;;;;5018885;28;20033;-78
2022/03/19 01:11:52;;;;;;;44.30;26.33;;;4.60;84.20;;;;;;5021992;28;20076;-79
2022/03/19 01:14:17;;;;;;;45.53;25.48;;;4.50;84.50;;;;;;5024236;28;20033;-79
2022/03/19 01:16:43;;;;;;;46.53;28.02;;;4.50;84.90;;;;;;5014900;28;20441;-80
2022/03/19 01:19:09;;;;;;;46.42;27.00;;;4.40;85.10;;;;;;5021531;28;20052;-80
2022/03/19 01:21:35;;;;;;;43.25;26.13;;;4.40;85.50;;;;;;5020995;28;20030;-77
2022/03/19 01:24:02;;;;;;;54.28;28.67;;;4.40;85.80;;;;;;5020475;28;20026;-79
2022/03/19 01:26:28;;;;;;;44.28;26.17;;;4.40;86.10;;;;;;5020524;28;20049;-78
2022/03/19 01:28:54;;;;;;;46.85;28.05;;;4.40;86.20;;;;;;5025302;28;20018;-81
2022/03/19 01:31:23;;;;;;;47.30;28.25;;;4.30;86.50;;;;;;5035999;28;20022;-80
2022/03/19 01:33:49;;;;;;;58.10;29.88;;;4.30;86.90;;;;;;5030196;28;20025;-79
2022/03/19 01:36:16;;;;;;;45.20;27.33;;;4.40;87.30;;;;;;5030931;28;20062;-78
2022/03/19 01:38:42;;;;;;;51.15;30.30;;;4.30;87.40;;;;;;5024114;28;20081;-80
2022/03/19 01:41:07;;;;;;;47.45;28.48;;;4.20;87.60;;;;;;5021931;28;20022;-79
2022/03/19 01:43:36;;;;;;;52.72;30.70;;;4.30;88.10;;;;;;5016909;28;20021;-80
2022/03/19 01:46:02;;;;;;;45.90;29.20;;;4.20;88.20;;;;;;5017196;28;20486;-80
2022/03/19 01:48:36;;;;;;;55.70;31.08;;;4.20;88.50;;;;;;5016981;28;20291;-80
2022/03/19 01:51:02;;;;;;;53.30;30.23;;;4.20;88.70;;;;;;5001799;28;20311;-78
2022/03/19 01:53:28;;;;;;;52.83;30.20;;;4.20;89.00;;;;;;5017577;28;20072;-79
2022/03/19 01:55:55;;;;;;;48.55;29.33;;;4.10;89.20;;;;;;5019928;28;20058;-79
2022/03/19 01:58:21;;;;;;;58.88;33.75;;;4.10;89.50;;;;;;5022219;28;20022;-80
2022/03/19 02:00:47;;;;;;;59.05;35.25;;;4.10;89.80;;;;;;5027625;28;20021;-78
2022/03/19 02:03:13;;;;;;;58.45;34.17;;;4.10;90.10;;;;;;5020285;28;20037;-78
2022/03/19 02:05:39;;;;;;;58.65;34.95;;;4.10;90.30;;;;;;5002520;28;20471;-78
2022/03/19 02:08:05;;;;;;;62.75;36.70;;;4.10;90.40;;;;;;5016418;28;20030;-78
2022/03/19 02:10:30;;;;;;;65.35;36.50;;;4.10;90.60;;;;;;5031749;28;20024;-80
2022/03/19 02:13:02;;;;;;;65.20;37.08;;;4.00;90.80;;;;;;5028510;28;20110;-79
2022/03/19 02:15:28;;;;;;;72.65;39.65;;;4.00;91.00;;;;;;4999803;28;20029;-80
2022/03/19 02:17:54;;;;;;;65.90;37.83;;;4.10;91.50;;;;;;5015907;28;20108;-80
2022/03/19 02:20:20;;;;;;;67.18;38.63;;;4.10;91.40;;;;;;5018435;28;20022;-79
2022/03/19 02:25:34;;;;;;;72.50;39.70;;;4.00;91.50;;;;;;5018808;28;20033;-80
2022/03/19 02:25:37;;;;;;;79.75;41.67;;;4.00;91.70;;;;;;5015616;28;20033;-79
2022/03/19 02:28:04;;;;;;;75.90;43.42;;;4.00;92.10;;;;;;5019423;28;20037;-79
2022/03/19 02:30:31;;;;;;;76.28;42.03;;;4.00;92.40;;;;;;5001308;28;20068;-79
2022/03/19 02:32:58;;;;;;;76.22;41.28;;;4.00;92.80;;;;;;5017782;28;20109;-80
2022/03/19 02:35:24;;;;;;;72.88;41.50;;;3.90;92.80;;;;;;5016825;28;20121;-78
2022/03/19 02:37:50;;;;;;;79.65;44.78;;;4.00;93.10;;;;;;4999266;28;20034;-79
2022/03/19 02:40:20;;;;;;;80.22;42.65;;;4.00;93.20;;;;;;5018113;28;20026;-79
2022/03/19 02:42:48;;;;;;;82.38;43.72;;;3.90;93.40;;;;;;5004522;28;20088;-80
2022/03/19 02:45:14;;;;;;;76.55;44.55;;;3.90;93.60;;;;;;5018204;28;20021;-79
2022/03/19 02:47:58;;;;;;;85.47;45.78;;;3.80;93.80;;;;;;5017483;28;20034;-79
2022/03/19 02:50:28;;;;;;;80.28;43.15;;;3.80;94.00;;;;;;5016804;28;20049;-78
2022/03/19 02:52:55;;;;;;;82.88;43.97;;;3.70;94.20;;;;;;5015150;28;20070;-81
2022/03/19 02:55:21;;;;;;;77.03;43.75;;;3.70;94.40;;;;;;5014697;28;20755;-79
2022/03/19 02:57:47;;;;;;;78.43;43.92;;;3.60;94.60;;;;;;5016202;28;20034;-79
2022/03/19 03:00:13;;;;;;;76.03;40.15;;;3.50;94.70;;;;;;5013770;28;20474;-78
2022/03/19 03:02:39;;;;;;;71.43;39.00;;;3.50;95.00;;;;;;5015871;28;20061;-78
2022/03/19 03:05:05;;;;;;;69.38;40.20;;;3.40;95.20;;;;;;5017223;28;20022;-79
2022/03/19 03:07:31;;;;;;;75.72;41.28;;;3.40;95.60;;;;;;5016860;28;20045;-79
2022/03/19 03:09:57;;;;;;;70.75;37.83;;;3.40;95.70;;;;;;5015442;28;20030;-78
2022/03/19 03:12:23;;;;;;;65.18;38.20;;;3.30;95.80;;;;;;5015200;28;20529;-80
2022/03/19 03:14:49;;;;;;;68.93;37.47;;;3.30;96.00;;;;;;5009448;28;20030;-79
2022/03/19 03:17:14;;;;;;;80.00;40.70;;;3.30;96.10;;;;;;5010851;28;20378;-78
2022/03/19 03:19:42;;;;;;;80.65;43.03;;;3.30;96.10;;;;;;5013529;28;20041;-78
2022/03/19 03:22:09;;;;;;;79.35;42.38;;;3.30;96.20;;;;;;5013073;28;20374;-78
2022/03/19 03:24:35;;;;;;;68.65;37.60;;;3.30;96.30;;;;;;5016348;28;20029;-79
2022/03/19 03:27:00;;;;;;;67.18;38.72;;;3.20;96.40;;;;;;5014144;28;20029;-79
2022/03/19 03:29:26;;;;;;;67.80;37.78;;;3.20;96.50;;;;;;5021095;28;20010;-79
2022/03/19 03:31:52;;;;;;;61.33;35.17;;;3.20;96.70;;;;;;5033164;28;20018;-79
2022/03/19 03:34:18;;;;;;;62.38;36.70;;;3.20;96.70;;;;;;5022184;28;20081;-78
2022/03/19 03:36:43;;;;;;;58.88;35.13;;;3.10;96.60;;;;;;5014143;28;20037;-79
2022/03/19 03:39:09;;;;;;;68.25;38.40;;;3.10;96.60;;;;;;5019641;28;20405;-81
2022/03/19 03:41:35;;;;;;;73.72;40.67;;;3.10;96.70;;;;;;5015095;28;20049;-77
2022/03/19 03:44:00;;;;;;;78.22;41.45;;;3.00;96.50;;;;;;5014926;28;20030;-79
2022/03/19 03:46:26;;;;;;;79.13;42.35;;;3.00;96.50;;;;;;5004221;28;20053;-77
2022/03/19 03:48:52;;;;;;;70.80;39.42;;;3.00;96.60;;;;;;5016093;28;20399;-78
2022/03/19 03:51:18;;;;;;;66.55;36.83;;;3.00;96.70;;;;;;5017083;28;20026;-78
2022/03/19 03:53:47;;;;;;;67.18;37.38;;;3.00;96.80;;;;;;5016878;28;20079;-79
2022/03/19 03:56:13;;;;;;;77.40;39.92;;;3.00;96.70;;;;;;5017652;28;20040;-79
2022/03/19 03:58:40;;;;;;;78.10;42.50;;;3.00;96.60;;;;;;5018263;28;20029;-79
2022/03/19 04:01:07;;;;;;;75.45;39.83;;;3.00;96.60;;;;;;5018081;28;20022;-79
2022/03/19 04:03:33;;;;;;;71.93;39.53;;;3.00;96.60;;;;;;5017000;28;20060;-78
2022/03/19 04:05:58;;;;;;;72.00;38.75;;;2.90;96.70;;;;;;5018717;28;20049;-79
2022/03/19 04:08:24;;;;;;;72.68;38.60;;;2.90;96.60;;;;;;5016800;28;20105;-79
2022/03/19 04:10:50;;;;;;;74.57;39.30;;;2.90;96.60;;;;;;5018258;28;20097;-79
2022/03/19 04:13:16;;;;;;;68.30;38.13;;;2.90;96.50;;;;;;5017275;28;20129;-80
2022/03/19 04:15:41;;;;;;;77.85;40.28;;;2.90;96.40;;;;;;5015653;28;20510;-80
2022/03/19 04:18:07;;;;;;;67.13;36.67;;;2.90;96.30;;;;;;5010574;28;20064;-80
2022/03/19 04:20:33;;;;;;;67.85;37.60;;;2.90;96.10;;;;;;5000556;28;20079;-77
2022/03/19 04:22:59;;;;;;;62.78;35.28;;;2.90;96.10;;;;;;5019103;28;20336;-80
2022/03/19 04:25:26;;;;;;;63.13;34.92;;;2.90;96.10;;;;;;5018838;28;20026;-80
2022/03/19 04:27:56;;;;;;;63.22;34.13;;;2.90;96.10;;;;;;5015652;28;20427;-81
2022/03/19 04:30:26;;;;;;;65.10;36.17;;;2.90;96.00;;;;;;5018150;28;20218;-79
2022/03/19 04:32:53;;;;;;;71.68;36.28;;;2.90;95.90;;;;;;5019596;28;20438;-79
2022/03/19 04:38:10;;;;;;;67.53;35.55;;;2.80;95.80;;;;;;5020146;28;20068;-79
2022/03/19 04:40:37;;;;;;;66.10;36.38;;;2.80;95.80;;;;;;5021942;28;20097;-79
2022/03/19 04:43:03;;;;;;;64.53;35.28;;;2.70;95.90;;;;;;5018290;28;20528;-79
2022/03/19 04:45:29;;;;;;;62.95;32.90;;;2.70;96.00;;;;;;5017401;28;20378;-79
2022/03/19 04:47:54;;;;;;;60.30;32.08;;;2.70;96.30;;;;;;5003451;28;20025;-79
2022/03/19 04:50:21;;;;;;;59.95;32.92;;;2.70;96.10;;;;;;5020033;28;20531;-79
2022/03/19 04:52:48;;;;;;;63.08;33.60;;;2.70;96.30;;;;;;5019323;28;20061;-79
2022/03/19 04:55:14;;;;;;;52.90;31.30;;;2.60;96.30;;;;;;5018909;28;20033;-78
2022/03/19 04:57:40;;;;;;;55.40;31.95;;;2.60;96.50;;;;;;5020940;28;20040;-80
2022/03/19 05:00:08;;;;;;;63.08;32.63;;;2.50;96.60;;;;;;5015721;28;20022;-79
2022/03/19 05:02:34;;;;;;;67.15;35.33;;;2.50;96.60;;;;;;5025168;28;20101;-80
2022/03/19 05:05:00;;;;;;;55.35;32.13;;;2.50;96.80;;;;;;5025933;28;20022;-78
2022/03/19 05:07:27;;;;;;;56.50;31.05;;;2.50;96.80;;;;;;5029901;28;20034;-79
2022/03/19 05:12:43;;;;;;;61.95;33.00;;;2.50;96.70;;;;;;5032369;28;20061;-79
2022/03/19 05:15:14;;;;;;;58.92;33.00;;;2.40;96.70;;;;;;5086820;22;20075;-80
2022/03/19 05:17:40;;;;;;;58.97;32.63;;;2.40;96.80;;;;;;5077916;28;20028;-79
2022/03/19 05:20:06;;;;;;;58.47;32.47;;;2.40;96.90;;;;;;5079357;28;20029;-79
2022/03/19 05:22:32;;;;;;;58.22;32.25;;;2.40;97.10;;;;;;5077454;28;20028;-79
2022/03/19 05:24:58;;;;;;;58.50;30.52;;;2.40;97.20;;;;;;5078432;28;20035;-82
2022/03/19 05:27:25;;;;;;;55.47;29.00;;;2.30;97.20;;;;;;5075422;28;20030;-79
2022/03/19 05:29:51;;;;;;;52.92;29.98;;;2.40;97.20;;;;;;5097109;28;20028;-80
2022/03/19 05:32:18;;;;;;;58.30;29.92;;;2.40;97.00;;;;;;5097732;28;20036;-79
2022/03/19 05:34:44;;;;;;;61.88;33.50;;;2.40;96.90;;;;;;5080143;28;20024;-80
2022/03/19 05:37:10;;;;;;;67.18;33.83;;;2.40;96.70;;;;;;5080210;28;20031;-80
2022/03/19 05:39:36;;;;;;;60.15;33.38;;;2.40;96.50;;;;;;5082489;28;20103;-80
2022/03/19 05:42:03;;;;;;;63.25;32.53;;;2.50;96.20;;;;;;5078290;28;20055;-79
2022/03/19 05:44:29;;;;;;;65.35;34.38;;;2.50;95.90;;;;;;5077796;28;20437;-79
2022/03/19 05:46:58;;;;;;;61.17;33.75;;;2.50;95.70;;;;;;5080346;28;20028;-80
2022/03/19 05:49:27;;;;;;;67.43;34.85;;;2.50;95.50;;;;;;5082208;28;20119;-80
2022/03/19 05:51:54;;;;;;;66.22;34.72;;;2.50;95.00;;;;;;5078271;28;20028;-80
2022/03/19 05:54:20;;;;;;;60.13;33.05;;;2.60;94.90;;;;;;5081134;28;20021;-80
2022/03/19 05:56:45;;;;;;;58.17;32.22;;;2.60;94.80;;;;;;5082076;28;20019;-81
2022/03/19 05:59:11;;;;;;;63.42;33.22;;;2.60;94.70;;;;;;5081236;28;20073;-80
2022/03/19 06:01:37;;;;;;;61.30;32.38;;;2.60;94.50;;;;;;5080649;28;20592;-80
2022/03/19 06:04:04;;;;;;;57.53;31.70;;;2.60;94.50;;;;;;5080603;28;20024;-80
2022/03/19 06:06:30;;;;;;;61.58;32.63;;;2.70;94.50;;;;;;5081531;28;20112;-80
2022/03/19 06:08:57;;;;;;;60.08;32.83;;;2.80;94.50;;;;;;5078093;28;20124;-80
2022/03/19 06:11:23;;;;;;;54.78;31.05;;;2.80;94.30;;;;;;5079874;28;20402;-79
2022/03/19 06:13:49;;;;;;;60.28;32.38;;;2.80;94.20;;;;;;5081139;28;20029;-79
2022/03/19 06:16:15;;;;;;;61.53;33.25;;;2.80;94.10;;;;;;5072684;28;20030;-80
2022/03/19 06:18:45;;;;;;;64.70;34.35;;;2.90;94.10;;;;;;5077929;28;20024;-79
2022/03/19 06:21:11;;;;;;;57.67;31.58;;;2.90;93.70;;;;;;5079078;28;20088;-80
2022/03/19 06:23:37;;;;;;;65.05;35.22;;;2.90;93.80;;;;;;5078178;28;20106;-79
2022/03/19 06:26:03;;;;;;;64.25;35.20;;;3.00;93.90;;;;;;5086574;28;20040;-80
2022/03/19 06:28:29;;;;;;;63.55;33.15;;;3.00;94.00;;;;;;5080959;28;20025;-80
2022/03/19 06:30:55;;;;;;;62.53;33.05;;;3.00;94.00;;;;;;5084340;28;20503;-80
2022/03/19 06:33:21;;;;;;;67.32;33.63;;;3.00;94.00;;;;;;5087208;28;20028;-80
2022/03/19 06:38:31;;;;;;;56.70;31.55;;;3.10;93.60;;;;;;5084575;28;20060;-80
2022/03/19 06:40:59;;;;;;;56.90;31.17;;;3.20;93.40;;;;;;5087073;28;20086;-80
2022/03/19 06:43:25;;;;;;;59.65;31.42;;;3.20;93.00;;;;;;5086258;28;20046;-80
2022/03/19 06:45:51;;;;;;;54.38;30.77;;;3.30;92.60;;;;;;5076932;28;20032;-80
2022/03/19 06:48:17;;;;;;;57.03;28.88;;;3.30;92.10;;;;;;5099351;28;20008;-80
2022/03/19 06:50:43;;;;;;;53.47;29.90;;;3.40;92.00;;;;;;5063912;28;20057;-79
2022/03/19 06:53:08;;;;;;;54.95;30.63;;;3.40;91.70;;;;;;5083614;28;20024;-79
2022/03/19 06:55:34;;;;;;;53.85;28.38;;;3.40;91.30;;;;;;5081262;28;20037;-80
2022/03/19 06:58:00;;;;;;;50.92;27.85;;;3.50;90.70;;;;;;5083486;28;20028;-80
2022/03/19 07:00:27;;;;;;;52.00;28.73;;;3.60;90.90;;;;;;5081376;28;20052;-80
2022/03/19 07:02:54;;;;;;;48.40;26.67;;;3.70;90.60;;;;;;5082959;28;20013;-80
2022/03/19 07:05:27;;;;;;;49.85;26.90;;;3.80;88.90;;;;;;5082294;28;20037;-80
2022/03/19 07:07:54;;;;;;;47.60;26.08;;;3.80;88.80;;;;;;5082087;28;20023;-79
2022/03/19 07:10:21;;;;;;;49.80;26.48;;;3.90;86.80;;;;;;5081878;28;20034;-80
2022/03/19 07:12:49;;;;;;;50.72;26.33;;;4.00;86.40;;;;;;5080660;28;20028;-80
2022/03/19 07:15:16;;;;;;;40.22;23.48;;;4.00;83.60;;;;;;5078556;28;20091;-79
2022/03/19 07:17:43;;;;;;;42.65;22.48;;;4.10;83.80;;;;;;5082480;28;20027;-80
2022/03/19 07:20:11;;;;;;;40.55;23.45;;;4.10;83.20;;;;;;5079453;28;20036;-79
2022/03/19 07:22:52;;;;;;;44.60;22.85;;;4.20;82.30;;;;;;5080729;28;20021;-79
2022/03/19 07:25:19;;;;;;;40.85;22.02;;;4.20;81.50;;;;;;5084646;28;20063;-80
2022/03/19 07:27:46;;;;;;;37.92;21.40;;;4.40;79.40;;;;;;5085066;28;20078;-79
2022/03/19 07:30:13;;;;;;;32.42;19.67;;;4.40;77.40;;;;;;5085573;28;20024;-80
2022/03/19 07:32:39;;;;;;;39.28;20.83;;;4.50;78.10;;;;;;5084555;28;20051;-80
2022/03/19 07:35:06;;;;;;;41.42;20.55;;;4.60;76.70;;;;;;5082652;28;20028;-79
2022/03/19 07:37:33;;;;;;;36.55;19.98;;;4.70;76.30;;;;;;5083913;28;20028;-80
2022/03/19 07:39:59;;;;;;;34.00;20.83;;;4.80;75.60;;;;;;5084471;28;20016;-79
2022/03/19 07:42:25;;;;;;;37.88;20.67;;;4.90;74.50;;;;;;5086056;28;20065;-80
2022/03/19 07:44:52;;;;;;;38.38;20.23;;;4.90;73.00;;;;;;5084011;28;20521;-80
2022/03/19 07:47:19;;;;;;;36.92;20.25;;;5.00;72.50;;;;;;5083235;28;20031;-80
2022/03/19 07:49:45;;;;;;;36.53;20.35;;;5.00;73.30;;;;;;5084273;28;20029;-81
2022/03/19 07:52:13;;;;;;;37.70;20.77;;;5.20;72.50;;;;;;5083909;28;20024;-78
2022/03/19 07:54:39;;;;;;;35.78;19.90;;;5.30;72.00;;;;;;5082799;28;20058;-80
2022/03/19 07:57:07;;;;;;;33.08;19.73;;;5.40;70.90;;;;;;5084381;28;20036;-80
2022/03/19 07:59:33;;;;;;;34.50;19.65;;;5.40;69.70;;;;;;5084514;28;20013;-80
2022/03/19 08:02:00;;;;;;;34.85;19.55;;;5.50;70.20;;;;;;5088874;28;20028;-80
2022/03/19 08:04:26;;;;;;;35.00;19.08;;;5.70;69.20;;;;;;5085560;28;20044;-80
2022/03/19 08:06:55;;;;;;;38.55;19.92;;;5.80;69.10;;;;;;5082755;28;20025;-80
2022/03/19 08:09:23;;;;;;;26.77;16.40;;;5.90;69.20;;;;;;5096270;28;20029;-80
2022/03/19 08:11:50;;;;;;;30.05;17.20;;;6.10;67.70;;;;;;5085245;28;20094;-80
2022/03/19 08:14:17;;;;;;;27.77;15.95;;;6.30;67.20;;;;;;5084013;28;20431;-79
2022/03/19 08:16:49;;;;;;;29.70;16.88;;;6.50;65.50;;;;;;5077956;28;20068;-80
2022/03/19 08:19:15;;;;;;;31.35;16.20;;;6.70;64.50;;;;;;5085074;28;20029;-80
2022/03/19 08:21:45;;;;;;;33.85;16.08;;;6.90;62.80;;;;;;5083482;28;20473;-79
2022/03/19 08:24:12;;;;;;;25.60;15.35;;;7.00;61.40;;;;;;5098647;28;20111;-79
2022/03/19 08:26:38;;;;;;;32.95;16.48;;;7.00;59.40;;;;;;5082739;28;20032;-80
2022/03/19 08:29:04;;;;;;;27.08;15.82;;;7.10;57.40;;;;;;5082168;28;20469;-79
2022/03/19 08:31:31;;;;;;;29.42;16.75;;;7.20;57.00;;;;;;5083957;28;20005;-80
2022/03/19 08:33:57;;;;;;;29.45;14.98;;;7.20;56.70;;;;;;5083166;28;20028;-79
2022/03/19 08:36:24;;;;;;;28.85;15.43;;;7.30;57.00;;;;;;5080112;28;20028;-81
2022/03/19 08:41:35;;;;;;;28.70;15.02;;;7.60;54.20;;;;;;5082130;28;20039;-79
2022/03/19 08:44:05;;;;;;;24.75;13.57;;;7.80;54.40;;;;;;5078085;28;20464;-80
2022/03/19 08:46:31;;;;;;;26.30;15.50;;;8.10;54.00;;;;;;5078786;28;20032;-80
2022/03/19 08:48:56;;;;;;;31.85;15.88;;;8.30;52.10;;;;;;5080783;28;20034;-79
2022/03/19 08:51:41;;;;;;;29.30;14.77;;;8.20;51.70;;;;;;5080030;28;20469;-80
2022/03/19 08:54:11;;;;;;;22.90;14.25;;;8.00;52.50;;;;;;5081323;28;20049;-80
2022/03/19 08:56:38;;;;;;;26.00;15.00;;;8.20;52.50;;;;;;5082973;28;20029;-79
2022/03/19 08:59:04;;;;;;;27.58;15.80;;;8.40;52.00;;;;;;5082108;28;20058;-80
2022/03/19 09:01:31;;;;;;;28.23;15.23;;;8.50;51.60;;;;;;5086048;28;20091;-80
2022/03/19 09:03:58;;;;;;;23.27;14.57;;;8.60;51.80;;;;;;5084913;28;20028;-79
2022/03/19 09:06:23;;;;;;;29.80;16.25;;;8.90;51.90;;;;;;5085147;28;20031;-79
2022/03/19 09:08:49;;;;;;;29.25;15.65;;;9.10;50.40;;;;;;5082145;28;20103;-79
2022/03/19 09:11:19;;;;;;;26.00;16.70;;;9.10;49.70;;;;;;5084654;28;20047;-79
2022/03/19 09:13:46;;;;;;;30.40;17.38;;;9.10;50.30;;;;;;5081659;28;20417;-80
2022/03/19 09:16:12;;;;;;;30.98;17.92;;;9.20;50.20;;;;;;5072796;28;20053;-80
2022/03/19 09:18:38;;;;;;;29.30;17.42;;;9.40;49.80;;;;;;5079040;28;20055;-79
2022/03/19 09:21:04;;;;;;;29.25;17.38;;;9.60;50.00;;;;;;5081173;28;20020;-79
2022/03/19 09:23:30;;;;;;;27.25;16.98;;;9.80;49.30;;;;;;5081277;28;20044;-80
2022/03/19 09:25:56;;;;;;;29.70;17.48;;;9.90;49.50;;;;;;5082265;28;20393;-79
2022/03/19 09:28:22;;;;;;;27.23;16.77;;;10.00;48.20;;;;;;5081658;28;20435;-81
2022/03/19 09:30:48;;;;;;;27.83;16.75;;;10.20;48.60;;;;;;5082292;28;20071;-79
2022/03/19 09:33:14;;;;;;;26.42;15.88;;;10.20;47.40;;;;;;5082182;28;20020;-79
2022/03/19 09:35:40;;;;;;;30.88;17.95;;;10.00;48.40;;;;;;5080290;28;20029;-80
2022/03/19 09:38:06;;;;;;;33.40;18.42;;;10.00;48.30;;;;;;5082148;28;20020;-80
2022/03/19 09:40:32;;;;;;;27.73;16.83;;;10.00;48.20;;;;;;5081731;28;20104;-79
2022/03/19 09:42:59;;;;;;;26.50;16.45;;;9.90;47.90;;;;;;5081374;28;20032;-81
2022/03/19 09:45:27;;;;;;;31.33;18.05;;;9.90;48.70;;;;;;5063514;28;20024;-79
2022/03/19 09:47:54;;;;;;;29.70;18.10;;;10.20;48.20;;;;;;5078024;28;20028;-79
2022/03/19 09:50:20;;;;;;;29.42;16.80;;;10.40;47.40;;;;;;5077170;28;20024;-79
2022/03/19 09:52:51;;;;;;;26.73;16.50;;;10.30;46.90;;;;;;5077048;28;20024;-79
2022/03/19 09:55:18;;;;;;;26.88;17.73;;;10.20;47.70;;;;;;5077685;28;20055;-79
2022/03/19 09:57:44;;;;;;;29.10;17.83;;;10.30;46.80;;;;;;5077751;28;20064;-79
2022/03/19 10:00:11;;;;;;;26.15;15.93;;;10.40;47.30;;;;;;5077069;28;20017;-79
2022/03/19 10:02:56;;;;;;;31.42;17.92;;;10.70;46.80;;;;;;5076960;28;20024;-79
2022/03/19 10:10:55;;;;;;;25.27;15.57;;;10.80;45.50;;;;;;5080775;28;20067;-79
2022/03/19 10:13:23;;;;;;;24.58;15.45;;;10.90;45.70;;;;;;5078893;28;20017;-80
2022/03/19 10:15:48;;;;;;;24.77;15.40;;;11.10;45.40;;;;;;5068418;28;20040;-81
2022/03/19 10:18:14;;;;;;;24.00;14.73;;;11.30;44.30;;;;;;5068256;28;20032;-81
2022/03/19 10:20:40;;;;;;;24.15;14.75;;;11.00;43.00;;;;;;5080951;28;20040;-80
2022/03/19 10:23:06;;;;;;;20.75;13.05;;;11.20;43.60;;;;;;5081597;28;20109;-80
2022/03/19 10:25:32;;;;;;;24.92;15.27;;;12.20;43.80;;;;;;5087839;28;20079;-79
2022/03/19 10:28:04;;;;;;;23.30;15.50;;;12.90;40.90;;;;;;5085590;28;20067;-80
2022/03/19 10:30:35;;;;;;;;;;;13.70;40.60;;;;;;5094595;28;20036;-79
2022/03/19 10:33:00;;;;;;;22.33;14.23;;;13.80;39.70;;;;;;5078306;28;19908;-80
2022/03/19 10:35:31;;;;;;;22.10;13.25;;;13.20;38.90;;;;;;5082616;28;20104;-78
2022/03/19 10:37:59;;;;;;;20.73;13.00;;;13.00;39.40;;;;;;5092104;28;20055;-80
2022/03/19 10:40:42;;;;;;;23.17;14.57;;;13.00;39.20;;;;;;5082229;28;20027;-80
2022/03/19 10:43:10;;;;;;;21.80;13.48;;;12.90;39.00;;;;;;5076807;28;20056;-79
2022/03/19 10:45:50;;;;;;;20.13;13.35;;;12.80;38.80;;;;;;5070948;28;20488;-79
2022/03/19 10:48:22;;;;;;;19.30;13.93;;;12.50;37.90;;;;;;5078714;28;20389;-80
2022/03/19 10:50:49;;;;;;;19.85;13.35;;;12.00;39.50;;;;;;5078256;28;20025;-79
2022/03/19 10:53:16;;;;;;;25.20;13.15;;;11.60;40.10;;;;;;5079187;28;20032;-79
2022/03/19 10:55:42;;;;;;;21.20;13.25;;;11.80;40.80;;;;;;5078615;28;20035;-81
2022/03/19 10:58:08;;;;;;;20.55;12.82;;;11.70;39.10;;;;;;5078849;28;20021;-80
2022/03/19 11:00:35;;;;;;;18.90;12.15;;;11.50;39.00;;;;;;5080234;28;20104;-80
2022/03/19 11:03:13;;;;;;;21.30;12.82;;;11.30;39.00;;;;;;5083329;28;20020;-79
2022/03/19 11:05:40;;;;;;;18.90;12.15;;;11.20;39.30;;;;;;5082990;28;20026;-79
2022/03/19 11:08:10;;;;;;;21.08;13.40;;;11.10;39.40;;;;;;5082795;28;20035;-79
2022/03/19 11:10:36;;;;;;;18.40;12.40;;;10.90;39.20;;;;;;5083312;28;20050;-80
2022/03/19 11:13:03;;;;;;;19.55;11.95;;;10.70;40.00;;;;;;5084519;28;20020;-80
2022/03/19 11:15:34;;;;;;;19.63;11.32;;;10.60;40.70;;;;;;5078054;22;20110;-81
2022/03/19 11:18:06;;;;;;;21.00;11.15;;;10.90;41.50;;;;;;5060134;28;20431;-81
2022/03/19 11:20:34;;;;;;;19.38;12.30;;;11.20;40.50;;;;;;5065057;28;20115;-80
2022/03/19 11:23:01;;;;;;;18.63;12.25;;;11.50;39.80;;;;;;5063730;28;20057;-81
2022/03/19 11:25:27;;;;;;;16.25;11.05;;;11.60;39.00;;;;;;5063985;28;20021;-80
2022/03/19 11:28:01;;;;;;;19.73;11.57;;;11.50;39.40;;;;;;5063303;28;20055;-80
2022/03/19 11:30:38;;;;;;;22.02;12.98;;;11.30;39.50;;;;;;5064463;28;20060;-79
2022/03/19 11:33:09;;;;;;;20.08;12.13;;;11.30;39.50;;;;;;5064562;28;20033;-81
2022/03/19 11:35:44;;;;;;;17.88;11.30;;;11.40;39.20;;;;;;5063949;28;20048;-80
2022/03/19 11:38:18;;;;;;;17.02;11.70;;;11.50;38.70;;;;;;5063741;28;20529;-79
2022/03/19 11:40:54;;;;;;;21.67;13.75;;;11.80;37.80;;;;;;5064652;28;20341;-81
2022/03/19 11:43:32;;;;;;;17.60;11.52;;;12.00;38.30;;;;;;5064991;28;20112;-80
2022/03/19 11:46:04;;;;;;;17.15;12.15;;;12.20;39.00;;;;;;5065028;28;20029;-79
2022/03/19 11:48:43;;;;;;;19.27;13.57;;;12.30;38.80;;;;;;5064763;28;20029;-81
2022/03/19 11:51:13;;;;;;;18.17;12.52;;;12.40;37.80;;;;;;5064715;28;20025;-81
2022/03/19 11:53:50;;;;;;;16.73;11.52;;;12.30;38.10;;;;;;5062178;28;20420;-80
2022/03/19 11:56:19;;;;;;;19.27;11.93;;;12.00;37.70;;;;;;5063528;28;20029;-81
2022/03/19 11:58:46;;;;;;;21.45;13.35;;;11.80;37.70;;;;;;5063353;28;20474;-80
2022/03/19 12:01:11;;;;;;;24.77;13.80;;;11.60;38.40;;;;;;5063552;28;20016;-80
2022/03/19 12:04:05;;;;;;;21.73;13.23;;;11.50;38.60;;;;;;5064344;28;20457;-80
2022/03/19 12:06:36;;;;;;;20.08;12.57;;;11.40;39.30;;;;;;5063635;28;20032;-80
2022/03/19 12:09:02;;;;;;;16.90;10.90;;;11.40;39.40;;;;;;5061717;28;20029;-81
2022/03/19 12:11:28;;;;;;;18.77;12.45;;;11.80;39.60;;;;;;5061893;28;20327;-81
2022/03/19 12:13:56;;;;;;;17.73;12.05;;;12.10;38.80;;;;;;5060414;28;20020;-80
2022/03/19 12:16:40;;;;;;;17.50;11.88;;;12.20;37.90;;;;;;5061136;28;20052;-80
2022/03/19 12:19:06;;;;;;;20.23;13.70;;;12.20;37.40;;;;;;5061672;28;20021;-79
2022/03/19 12:21:38;;;;;;;21.27;13.30;;;12.10;36.90;;;;;;5061553;28;20118;-79
2022/03/19 12:24:08;;;;;;;17.77;11.93;;;11.90;37.50;;;;;;5064330;28;20022;-81
2022/03/19 12:26:51;;;;;;;20.35;12.45;;;11.80;37.60;;;;;;5064032;28;20052;-79
2022/03/19 12:29:19;;;;;;;18.95;12.35;;;11.80;37.60;;;;;;5067011;28;20027;-82
2022/03/19 12:31:50;;;;;;;16.80;11.07;;;11.60;38.10;;;;;;5076046;28;20033;-80
2022/03/19 12:34:22;;;;;;;17.63;11.70;;;11.50;37.90;;;;;;5062040;28;20029;-81
2022/03/19 12:36:48;;;;;;;20.27;13.23;;;11.60;38.70;;;;;;5062224;28;20347;-79
2022/03/19 12:39:15;;;;;;;22.65;13.32;;;11.80;37.80;;;;;;5059841;28;20029;-81
2022/03/19 12:41:43;;;;;;;17.42;11.68;;;12.00;38.40;;;;;;5059878;28;20040;-79
2022/03/19 12:44:25;;;;;;;21.80;13.85;;;12.20;38.10;;;;;;5059767;28;20020;-81
2022/03/19 12:47:06;;;;;;;19.08;12.75;;;12.20;37.40;;;;;;5060407;28;20025;-81
2022/03/19 12:49:32;;;;;;;20.08;13.70;;;12.20;38.00;;;;;;5063633;28;20028;-81
2022/03/19 12:52:08;;;;;;;20.77;14.48;;;12.30;37.40;;;;;;5063536;28;20609;-80
2022/03/19 12:54:35;;;;;;;22.00;13.68;;;12.20;37.70;;;;;;5063732;28;20029;-79